createdAt,value
2022-10-22T00:02:01.147Z,19.50
2022-10-22T00:04:34.413Z,19.49
2022-10-22T00:07:02.837Z,19.45
2022-10-22T00:09:29.877Z,19.43
2022-10-22T00:11:56.843Z,19.43
2022-10-22T00:14:23.902Z,19.41
2022-10-22T00:16:50.877Z,19.37
2022-10-22T00:19:17.884Z,19.33
2022-10-22T00:21:46.118Z,19.29
2022-10-22T00:24:13.342Z,19.26
2022-10-22T00:26:40.359Z,19.24
2022-10-22T00:29:07.313Z,19.23
2022-10-22T00:31:34.430Z,19.24
2022-10-22T00:34:01.984Z,19.24
2022-10-22T00:36:29.089Z,19.23
2022-10-22T00:38:57.415Z,19.21
2022-10-22T00:41:24.335Z,19.18
2022-10-22T00:43:58.165Z,19.12
2022-10-22T00:46:25.616Z,19.10
2022-10-22T00:48:54.879Z,19.04
2022-10-22T00:51:25.593Z,18.98
2022-10-22T00:53:57.619Z,18.93
2022-10-22T00:56:24.921Z,18.88
2022-10-22T00:58:58.011Z,18.83
2022-10-22T01:01:28.317Z,18.81
2022-10-22T01:03:55.367Z,18.77
2022-10-22T01:06:29.252Z,18.72
2022-10-22T01:09:16.844Z,18.68
2022-10-22T01:11:57.045Z,18.68
2022-10-22T01:14:39.834Z,18.69
2022-10-22T01:17:15.333Z,18.70
2022-10-22T01:20:08.999Z,18.64
2022-10-22T01:22:44.008Z,18.59
2022-10-22T01:25:28.196Z,18.55
2022-10-22T01:28:15.724Z,18.47
2022-10-22T01:30:46.713Z,18.44
2022-10-22T01:33:18.451Z,18.39
2022-10-22T01:35:45.911Z,18.34
2022-10-22T01:38:20.179Z,18.31
2022-10-22T01:40:49.389Z,18.31
2022-10-22T01:43:16.635Z,18.35
2022-10-22T01:45:51.516Z,18.40
2022-10-22T01:48:37.414Z,18.47
2022-10-22T01:51:44.165Z,18.51
2022-10-22T01:54:28.550Z,18.52
2022-10-22T01:57:09.506Z,18.49
2022-10-22T01:59:52.941Z,18.45
2022-10-22T02:02:36.445Z,18.37
2022-10-22T02:05:11.297Z,18.31
2022-10-22T02:07:46.839Z,18.27
2022-10-22T02:10:17.332Z,18.22
2022-10-22T02:12:50.290Z,18.18
2022-10-22T02:15:19.795Z,18.16
2022-10-22T02:17:50.593Z,18.16
2022-10-22T02:20:22.656Z,18.17
2022-10-22T02:22:50.529Z,18.21
2022-10-22T02:25:18.443Z,18.22
2022-10-22T02:27:51.414Z,18.20
2022-10-22T02:30:21.950Z,18.19
2022-10-22T02:33:00.012Z,18.17
2022-10-22T02:35:29.629Z,18.19
2022-10-22T02:37:59.257Z,18.18
2022-10-22T02:40:28.300Z,18.18
2022-10-22T02:42:55.203Z,18.15
2022-10-22T02:45:22.927Z,18.13
2022-10-22T02:47:51.881Z,18.10
2022-10-22T02:50:18.843Z,18.06
2022-10-22T02:52:45.806Z,18.04
2022-10-22T02:55:12.796Z,18.01
2022-10-22T02:57:39.944Z,18.00
2022-10-22T03:00:10.774Z,17.97
2022-10-22T03:02:37.713Z,17.97
2022-10-22T03:05:07.425Z,17.98
2022-10-22T03:07:34.441Z,17.97
2022-10-22T03:10:01.392Z,17.99
2022-10-22T03:12:28.312Z,17.97
2022-10-22T03:14:55.208Z,17.96
2022-10-22T03:17:22.237Z,17.95
2022-10-22T03:19:49.249Z,17.96
2022-10-22T03:22:25.077Z,17.92
2022-10-22T03:24:58.222Z,17.94
2022-10-22T03:27:28.299Z,17.95
2022-10-22T03:29:57.214Z,17.96
2022-10-22T03:32:24.221Z,17.93
2022-10-22T03:34:51.218Z,17.91
2022-10-22T03:37:20.243Z,17.89
2022-10-22T03:39:47.534Z,17.87
2022-10-22T03:42:16.083Z,17.85
2022-10-22T03:44:43.585Z,17.84
2022-10-22T03:47:10.996Z,17.82
2022-10-22T03:49:37.982Z,17.82
2022-10-22T03:52:10.513Z,17.84
2022-10-22T03:54:39.718Z,17.87
2022-10-22T03:57:07.648Z,17.92
2022-10-22T03:59:35.741Z,17.94
2022-10-22T04:02:02.789Z,17.99
2022-10-22T04:04:29.846Z,18.06
2022-10-22T04:06:57.088Z,18.09
2022-10-22T04:09:24.180Z,18.12
2022-10-22T04:11:52.579Z,18.15
2022-10-22T04:14:19.533Z,18.16
2022-10-22T04:16:46.648Z,18.11
2022-10-22T04:19:13.793Z,18.10
2022-10-22T04:21:40.773Z,18.08
2022-10-22T04:24:08.049Z,18.09
2022-10-22T04:26:35.203Z,18.09
2022-10-22T04:29:03.860Z,18.06
2022-10-22T04:31:30.829Z,18.03
2022-10-22T04:34:00.244Z,18.00
2022-10-22T04:36:29.039Z,17.94
2022-10-22T04:38:59.094Z,17.93
2022-10-22T04:41:29.576Z,17.91
2022-10-22T04:43:57.978Z,17.90
2022-10-22T04:46:29.255Z,17.91
2022-10-22T04:48:56.601Z,17.92
2022-10-22T04:51:26.412Z,17.93
2022-10-22T04:53:53.944Z,17.98
2022-10-22T04:56:24.800Z,18.02
2022-10-22T04:58:54.740Z,18.04
2022-10-22T05:01:24.648Z,18.02
2022-10-22T05:03:55.428Z,18.00
2022-10-22T05:06:24.362Z,18.00
2022-10-22T05:08:56.575Z,17.97
2022-10-22T05:11:27.797Z,17.96
2022-10-22T05:13:56.192Z,17.95
2022-10-22T05:16:23.608Z,17.95
2022-10-22T05:18:52.047Z,17.96
2022-10-22T05:21:20.939Z,17.97
2022-10-22T05:23:50.157Z,17.97
2022-10-22T05:26:19.939Z,17.96
2022-10-22T05:28:48.462Z,17.95
2022-10-22T05:31:17.785Z,17.94
2022-10-22T05:33:45.998Z,17.95
2022-10-22T05:36:18.292Z,17.93
2022-10-22T05:38:46.226Z,17.93
2022-10-22T05:41:16.145Z,17.94
2022-10-22T05:43:43.575Z,17.96
2022-10-22T05:46:13.447Z,17.96
2022-10-22T05:48:41.132Z,17.99
2022-10-22T05:51:10.774Z,17.99
2022-10-22T05:53:42.390Z,17.96
2022-10-22T05:56:14.096Z,17.95
2022-10-22T05:58:42.483Z,17.96
2022-10-22T06:01:14.605Z,17.97
2022-10-22T06:03:42.955Z,17.94
2022-10-22T06:06:24.346Z,17.90
2022-10-22T06:08:54.713Z,17.90
2022-10-22T06:11:23.641Z,17.90
2022-10-22T06:13:51.743Z,17.90
2022-10-22T06:16:19.120Z,17.87
2022-10-22T06:18:46.164Z,17.87
2022-10-22T06:21:15.796Z,17.83
2022-10-22T06:23:43.583Z,17.80
2022-10-22T06:26:12.118Z,17.77
2022-10-22T06:28:39.399Z,17.75
2022-10-22T06:31:06.960Z,17.72
2022-10-22T06:33:34.692Z,17.74
2022-10-22T06:36:07.669Z,17.70
2022-10-22T06:38:35.093Z,17.71
2022-10-22T06:41:06.725Z,17.71
2022-10-22T06:43:35.099Z,17.72
2022-10-22T06:46:05.367Z,17.72
2022-10-22T06:48:33.297Z,17.70
2022-10-22T06:51:03.115Z,17.69
2022-10-22T06:53:30.289Z,17.69
2022-10-22T06:55:57.451Z,17.72
2022-10-22T06:58:24.518Z,17.74
2022-10-22T07:01:02.658Z,17.77
2022-10-22T07:03:29.674Z,17.83
2022-10-22T07:06:03.568Z,17.89
2022-10-22T07:08:31.239Z,17.94
2022-10-22T07:11:07.383Z,18.06
2022-10-22T07:13:34.942Z,18.27
2022-10-22T07:16:03.544Z,18.44
2022-10-22T07:18:30.972Z,18.50
2022-10-22T07:20:58.104Z,18.50
2022-10-22T07:23:25.583Z,18.53
2022-10-22T07:25:53.259Z,18.56
2022-10-22T07:28:20.618Z,18.53
2022-10-22T07:30:47.612Z,18.51
2022-10-22T07:33:16.646Z,18.56
2022-10-22T07:35:47.167Z,18.61
2022-10-22T07:38:14.497Z,18.61
2022-10-22T07:40:41.443Z,18.69
2022-10-22T07:43:08.411Z,18.79
2022-10-22T07:45:35.565Z,18.90
2022-10-22T07:48:02.588Z,18.99
2022-10-22T07:50:30.921Z,19.04
2022-10-22T07:52:58.382Z,19.09
2022-10-22T07:55:26.048Z,19.16
2022-10-22T07:57:53.093Z,19.20
2022-10-22T08:00:23.185Z,19.27
2022-10-22T08:02:52.492Z,19.31
2022-10-22T08:05:19.655Z,19.32
2022-10-22T08:07:54.970Z,19.31
2022-10-22T08:10:22.132Z,19.34
2022-10-22T08:12:49.067Z,19.40
2022-10-22T08:15:16.188Z,19.49
2022-10-22T08:17:43.708Z,19.54
2022-10-22T08:20:11.679Z,19.60
2022-10-22T08:22:39.073Z,19.67
2022-10-22T08:25:08.628Z,19.74
2022-10-22T08:27:36.267Z,19.82
2022-10-22T08:30:05.315Z,19.90
2022-10-22T08:32:32.348Z,19.98
2022-10-22T08:34:59.260Z,20.06
2022-10-22T08:37:26.260Z,20.19
2022-10-22T08:39:53.298Z,20.21
2022-10-22T08:42:50.396Z,20.26
2022-10-22T08:45:24.891Z,20.58
2022-10-22T08:48:16.008Z,21.12
2022-10-22T08:50:48.292Z,21.71
2022-10-22T08:53:26.184Z,22.14
2022-10-22T08:55:54.513Z,22.47
2022-10-22T08:58:34.906Z,22.70
2022-10-22T09:01:09.386Z,22.99
2022-10-22T09:03:51.270Z,23.24
2022-10-22T09:06:23.969Z,23.61
2022-10-22T09:08:52.606Z,23.79
2022-10-22T09:11:28.299Z,23.72
2022-10-22T09:13:58.451Z,23.59
2022-10-22T09:16:38.484Z,23.50
2022-10-22T09:19:25.731Z,23.63
2022-10-22T09:22:08.640Z,23.79
2022-10-22T09:24:39.894Z,23.88
2022-10-22T09:27:14.016Z,24.03
2022-10-22T09:29:44.039Z,24.00
2022-10-22T09:32:11.127Z,24.21
2022-10-22T09:34:38.556Z,24.64
2022-10-22T09:37:09.443Z,25.08
2022-10-22T09:39:39.603Z,25.53
2022-10-22T09:42:08.217Z,25.84
2022-10-22T09:44:37.776Z,25.98
2022-10-22T09:47:37.315Z,25.92
2022-10-22T09:50:22.377Z,25.98
2022-10-22T09:52:59.895Z,26.06
2022-10-22T09:55:27.895Z,26.11
2022-10-22T09:57:57.924Z,26.16
2022-10-22T10:00:26.922Z,26.07
2022-10-22T10:02:59.104Z,25.91
2022-10-22T10:05:30.897Z,25.86
2022-10-22T10:07:58.238Z,25.69
2022-10-22T10:10:37.031Z,25.41
2022-10-22T10:13:23.876Z,25.43
2022-10-22T10:16:00.473Z,25.30
2022-10-22T10:18:47.351Z,25.13
2022-10-22T10:21:28.347Z,25.08
2022-10-22T10:24:09.366Z,25.07
2022-10-22T10:26:50.228Z,25.06
2022-10-22T10:29:38.825Z,24.94
2022-10-22T10:32:33.752Z,24.83
2022-10-22T10:35:20.120Z,24.78
2022-10-22T10:38:08.299Z,24.68
2022-10-22T10:40:50.707Z,24.63
2022-10-22T10:43:29.413Z,24.64
2022-10-22T10:46:10.317Z,24.61
2022-10-22T10:48:50.935Z,24.60
2022-10-22T10:51:39.777Z,24.48
2022-10-22T10:54:27.246Z,24.41
2022-10-22T10:57:00.189Z,24.25
2022-10-22T10:59:58.592Z,24.17
2022-10-22T11:03:26.822Z,24.13
2022-10-22T11:05:59.181Z,24.16
2022-10-22T11:08:32.843Z,24.19
2022-10-22T11:11:06.937Z,24.33
2022-10-22T11:13:42.071Z,24.54
2022-10-22T11:16:20.015Z,24.83
2022-10-22T11:18:55.492Z,25.17
2022-10-22T11:21:32.569Z,25.40
2022-10-22T11:24:16.910Z,25.43
2022-10-22T11:26:49.988Z,25.44
2022-10-22T11:29:47.545Z,25.45
2022-10-22T11:32:21.686Z,25.42
2022-10-22T11:34:56.608Z,25.41
2022-10-22T11:37:32.901Z,25.43
2022-10-22T11:40:07.687Z,25.31
2022-10-22T11:42:39.986Z,25.21
2022-10-22T11:45:29.363Z,24.93
2022-10-22T11:48:07.459Z,24.72
2022-10-22T11:50:54.152Z,24.60
2022-10-22T11:53:43.387Z,24.57
2022-10-22T11:56:38.234Z,24.59
2022-10-22T11:59:38.356Z,24.53
2022-10-22T12:03:01.223Z,24.33
2022-10-22T12:05:38.823Z,24.41
2022-10-22T12:08:24.776Z,24.49
2022-10-22T12:11:05.345Z,24.57
2022-10-22T12:13:58.624Z,24.55
2022-10-22T12:16:54.771Z,24.48
2022-10-22T12:19:31.959Z,24.46
2022-10-22T12:22:11.612Z,24.65
2022-10-22T12:24:42.065Z,24.85
2022-10-22T12:27:53.467Z,24.85
2022-10-22T12:30:24.307Z,24.82
2022-10-22T12:32:56.144Z,24.86
2022-10-22T12:35:26.480Z,24.84
2022-10-22T12:37:58.132Z,24.78
2022-10-22T12:40:28.623Z,24.63
2022-10-22T12:42:58.163Z,24.60
2022-10-22T12:45:29.160Z,24.75
2022-10-22T12:48:01.553Z,24.95
2022-10-22T12:50:33.470Z,24.89
2022-10-22T12:53:04.500Z,24.82
2022-10-22T12:55:34.334Z,24.80
2022-10-22T12:58:07.193Z,24.84
2022-10-22T13:00:36.066Z,24.86
2022-10-22T13:03:06.993Z,24.64
2022-10-22T13:05:39.150Z,24.42
2022-10-22T13:08:11.064Z,24.37
2022-10-22T13:10:41.142Z,24.29
2022-10-22T13:13:33.097Z,24.18
2022-10-22T13:16:19.985Z,24.15
2022-10-22T13:18:48.666Z,24.14
2022-10-22T13:21:26.479Z,24.09
2022-10-22T13:23:57.909Z,24.10
2022-10-22T13:26:32.220Z,24.09
2022-10-22T13:29:01.199Z,24.02
2022-10-22T13:31:36.194Z,23.88
2022-10-22T13:34:11.698Z,23.83
2022-10-22T13:36:39.936Z,23.87
2022-10-22T13:39:08.804Z,23.90
2022-10-22T13:44:11.442Z,23.91
2022-10-22T13:46:42.605Z,23.86
2022-10-22T13:49:16.592Z,23.78
2022-10-22T13:51:44.166Z,23.76
2022-10-22T13:54:16.485Z,23.73
2022-10-22T13:56:43.401Z,23.75
2022-10-22T13:59:10.985Z,23.78
2022-10-22T14:01:39.202Z,23.83
2022-10-22T14:04:13.259Z,23.82
2022-10-22T14:06:41.681Z,23.77
2022-10-22T14:09:15.272Z,23.70
2022-10-22T14:11:42.999Z,23.64
2022-10-22T14:14:13.941Z,23.58
2022-10-22T14:16:41.312Z,23.52
2022-10-22T14:19:15.864Z,23.43
2022-10-22T14:21:44.592Z,23.37
2022-10-22T14:24:13.220Z,23.31
2022-10-22T14:26:40.875Z,23.30
2022-10-22T14:29:10.259Z,23.28
2022-10-22T14:34:15.172Z,23.23
2022-10-22T14:36:44.286Z,23.19
2022-10-22T14:39:11.768Z,23.16
2022-10-22T14:41:39.094Z,23.12
2022-10-22T14:44:06.091Z,23.11
2022-10-22T14:46:33.334Z,23.11
2022-10-22T14:49:00.286Z,23.13
2022-10-22T14:51:27.209Z,23.08
2022-10-22T14:53:55.440Z,23.10
2022-10-22T14:56:22.400Z,23.13
2022-10-22T14:58:49.593Z,23.12
2022-10-22T15:01:17.168Z,23.11
2022-10-22T15:04:00.211Z,23.10
2022-10-22T15:06:27.908Z,23.05
2022-10-22T15:08:56.316Z,22.98
2022-10-22T15:11:23.301Z,22.96
2022-10-22T15:13:50.617Z,22.95
2022-10-22T15:16:18.339Z,22.92
2022-10-22T15:18:45.416Z,22.91
2022-10-22T15:21:21.773Z,22.81
2022-10-22T15:23:56.757Z,22.70
2022-10-22T15:26:24.021Z,22.65
2022-10-22T15:28:54.698Z,22.61
2022-10-22T15:31:44.403Z,22.55
2022-10-22T15:34:11.571Z,22.60
2022-10-22T15:36:38.583Z,22.52
2022-10-22T15:39:10.956Z,22.48
2022-10-22T15:41:38.383Z,22.50
2022-10-22T15:44:06.217Z,22.46
2022-10-22T15:46:35.384Z,22.44
2022-10-22T15:49:02.642Z,22.44
2022-10-22T15:51:29.654Z,22.44
2022-10-22T15:53:59.064Z,22.43
2022-10-22T15:56:29.637Z,22.42
2022-10-22T15:58:59.267Z,22.40
2022-10-22T16:01:27.367Z,22.34
2022-10-22T16:04:00.169Z,22.30
2022-10-22T16:06:27.448Z,22.24
2022-10-22T16:08:56.143Z,22.23
2022-10-22T16:11:23.150Z,22.21
2022-10-22T16:13:56.512Z,22.17
2022-10-22T16:16:24.557Z,22.14
2022-10-22T16:18:52.928Z,22.11
2022-10-22T16:21:21.583Z,22.03
2022-10-22T16:23:49.431Z,21.98
2022-10-22T16:26:18.906Z,21.92
2022-10-22T16:28:47.576Z,21.81
2022-10-22T16:31:19.572Z,21.72
2022-10-22T16:33:50.019Z,21.68
2022-10-22T16:36:20.811Z,21.65
2022-10-22T16:38:48.565Z,21.65
2022-10-22T16:41:18.016Z,21.59
2022-10-22T16:43:48.352Z,21.45
2022-10-22T16:46:19.693Z,21.33
2022-10-22T16:48:47.829Z,21.29
2022-10-22T16:51:18.228Z,21.24
2022-10-22T16:53:45.579Z,21.20
2022-10-22T16:56:15.012Z,21.13
2022-10-22T16:58:48.090Z,21.07
2022-10-22T17:01:18.260Z,21.02
2022-10-22T17:03:45.654Z,20.94
2022-10-22T17:06:13.563Z,20.90
2022-10-22T17:08:41.624Z,20.82
2022-10-22T17:11:10.853Z,20.80
2022-10-22T17:13:40.033Z,20.82
2022-10-22T17:16:10.746Z,20.81
2022-10-22T17:18:41.233Z,20.74
2022-10-22T17:21:10.541Z,20.71
2022-10-22T17:23:37.847Z,20.71
2022-10-22T17:26:07.897Z,20.70
2022-10-22T17:28:36.383Z,20.72
2022-10-22T17:31:06.731Z,20.74
2022-10-22T17:33:35.119Z,20.73
2022-10-22T17:36:08.977Z,20.72
2022-10-22T17:38:35.950Z,20.72
2022-10-22T17:41:04.241Z,20.69
2022-10-22T17:43:34.889Z,20.63
2022-10-22T17:46:07.775Z,20.53
2022-10-22T17:48:34.851Z,20.49
2022-10-22T17:51:07.163Z,20.45
2022-10-22T17:53:34.383Z,20.39
2022-10-22T17:56:03.724Z,20.35
2022-10-22T17:58:30.766Z,20.30
2022-10-22T18:00:58.523Z,20.26
2022-10-22T18:03:35.296Z,20.20
2022-10-22T18:06:10.516Z,20.14
2022-10-22T18:08:37.641Z,20.10
2022-10-22T18:11:07.531Z,20.09
2022-10-22T18:13:34.933Z,20.07
2022-10-22T18:16:02.660Z,20.04
2022-10-22T18:18:29.971Z,20.00
2022-10-22T18:20:57.626Z,19.94
2022-10-22T18:23:26.636Z,19.89
2022-10-22T18:25:53.667Z,19.86
2022-10-22T18:28:20.920Z,19.83
2022-10-22T18:30:48.515Z,19.77
2022-10-22T18:33:18.721Z,19.73
2022-10-22T18:35:46.682Z,19.71
2022-10-22T18:38:13.692Z,19.66
2022-10-22T18:40:46.598Z,19.62
2022-10-22T18:43:14.078Z,19.60
2022-10-22T18:45:42.893Z,19.57
2022-10-22T18:48:10.300Z,19.58
2022-10-22T18:50:37.430Z,19.56
2022-10-22T18:53:04.808Z,19.54
2022-10-22T18:55:33.001Z,19.50
2022-10-22T18:58:01.298Z,19.49
2022-10-22T19:00:28.281Z,19.47
2022-10-22T19:02:55.258Z,19.43
2022-10-22T19:05:22.689Z,19.40
2022-10-22T19:07:50.458Z,19.38
2022-10-22T19:10:18.670Z,19.40
2022-10-22T19:12:46.061Z,19.37
2022-10-22T19:15:14.359Z,19.37
2022-10-22T19:17:41.757Z,19.35
2022-10-22T19:20:10.400Z,19.35
2022-10-22T19:22:37.316Z,19.32
2022-10-22T19:25:07.159Z,19.30
2022-10-22T19:27:36.692Z,19.27
2022-10-22T19:30:04.212Z,19.27
2022-10-22T19:32:32.513Z,19.26
2022-10-22T19:34:59.496Z,19.22
2022-10-22T19:37:26.405Z,19.19
2022-10-22T19:39:53.335Z,19.17
2022-10-22T19:42:20.763Z,19.17
2022-10-22T19:44:47.731Z,19.16
2022-10-22T19:47:15.928Z,19.13
2022-10-22T19:49:44.168Z,19.10
2022-10-22T19:52:11.102Z,19.07
2022-10-22T19:54:40.741Z,19.04
2022-10-22T19:57:08.517Z,19.02
2022-10-22T19:59:35.572Z,18.99
2022-10-22T20:02:02.505Z,18.97
2022-10-22T20:04:29.960Z,18.92
2022-10-22T20:06:59.400Z,18.91
2022-10-22T20:09:26.542Z,18.86
2022-10-22T20:11:53.494Z,18.86
2022-10-22T20:14:20.432Z,18.88
2022-10-22T20:16:47.327Z,18.86
2022-10-22T20:19:16.119Z,18.85
2022-10-22T20:21:45.087Z,18.81
2022-10-22T20:24:13.442Z,18.80
2022-10-22T20:26:40.479Z,18.80
2022-10-22T20:29:07.683Z,18.76
2022-10-22T20:31:35.852Z,18.75
2022-10-22T20:34:02.857Z,18.70
2022-10-22T20:36:32.560Z,18.68
2022-10-22T20:39:05.621Z,18.66
2022-10-22T20:41:37.730Z,18.64
2022-10-22T20:44:05.065Z,18.62
2022-10-22T20:46:33.773Z,18.60
2022-10-22T20:49:04.203Z,18.60
2022-10-22T20:51:31.506Z,18.57
2022-10-22T20:53:58.542Z,18.52
2022-10-22T20:56:27.162Z,18.51
2022-10-22T20:59:04.526Z,18.47
2022-10-22T21:01:34.299Z,18.47
2022-10-22T21:04:01.199Z,18.46
2022-10-22T21:06:29.921Z,18.46
2022-10-22T21:08:56.892Z,18.42
2022-10-22T21:11:23.897Z,18.41
2022-10-22T21:13:51.065Z,18.38
2022-10-22T21:16:19.616Z,18.35
2022-10-22T21:18:47.124Z,18.33
2022-10-22T21:21:16.908Z,18.31
2022-10-22T21:23:44.065Z,18.31
2022-10-22T21:26:11.545Z,18.32
2022-10-22T21:28:38.940Z,18.28
2022-10-22T21:31:09.157Z,18.28
2022-10-22T21:33:39.284Z,18.26
2022-10-22T21:36:08.944Z,18.26
2022-10-22T21:38:37.522Z,18.23
2022-10-22T21:41:06.050Z,18.22
2022-10-22T21:43:33.990Z,18.20
2022-10-22T21:46:07.948Z,18.17
2022-10-22T21:48:37.618Z,18.16
2022-10-22T21:51:10.460Z,18.13
2022-10-22T21:53:38.110Z,18.12
2022-10-22T21:56:07.328Z,18.12
2022-10-22T21:58:35.381Z,18.09
2022-10-22T22:01:02.969Z,18.07
2022-10-22T22:03:30.254Z,18.04
2022-10-22T22:06:00.194Z,18.02
2022-10-22T22:08:27.654Z,18.02
2022-10-22T22:11:02.313Z,18.01
2022-10-22T22:13:29.616Z,18.03
2022-10-22T22:16:01.099Z,18.01
2022-10-22T22:18:29.555Z,18.00
2022-10-22T22:20:57.312Z,17.95
2022-10-22T22:23:26.144Z,17.91
2022-10-22T22:25:53.068Z,17.88
2022-10-22T22:28:19.980Z,17.85
2022-10-22T22:30:46.902Z,17.82
2022-10-22T22:33:13.811Z,17.81
2022-10-22T22:35:40.728Z,17.81
2022-10-22T22:38:07.860Z,17.80
2022-10-22T22:40:39.224Z,17.78
2022-10-22T22:43:06.202Z,17.77
2022-10-22T22:45:33.369Z,17.78
2022-10-22T22:48:00.287Z,17.78
2022-10-22T22:50:27.307Z,17.79
2022-10-22T22:52:54.422Z,17.78
2022-10-22T22:55:22.884Z,17.75
2022-10-22T22:57:51.199Z,17.74
2022-10-22T23:00:18.816Z,17.74
2022-10-22T23:02:45.732Z,17.76
2022-10-22T23:05:12.664Z,17.77
2022-10-22T23:07:39.622Z,17.79
2022-10-22T23:10:07.569Z,17.80
2022-10-22T23:12:34.488Z,17.80
2022-10-22T23:15:03.178Z,17.81
2022-10-22T23:17:30.212Z,17.78
2022-10-22T23:19:57.169Z,17.76
2022-10-22T23:22:24.233Z,17.73
2022-10-22T23:24:51.172Z,17.68
2022-10-22T23:27:18.099Z,17.65
2022-10-22T23:29:45.025Z,17.62
2022-10-22T23:32:14.359Z,17.59
2022-10-22T23:34:41.318Z,17.53
2022-10-22T23:37:11.461Z,17.51
2022-10-22T23:39:38.468Z,17.49
2022-10-22T23:42:05.465Z,17.47
2022-10-22T23:44:32.397Z,17.44
2022-10-22T23:46:59.461Z,17.42
2022-10-22T23:49:27.735Z,17.42
2022-10-22T23:51:54.651Z,17.44
2022-10-22T23:54:21.588Z,17.43
2022-10-22T23:56:48.561Z,17.41
2022-10-22T23:59:15.975Z,17.40
